sensor_id;sensor_type;location;lat;lon;timestamp;P1;durP1;ratioP1;P2;durP2;ratioP2
8964;SDS011;4517;49.020;12.066;2023-12-07T00:01:54;35.50;;;31.80;;
8964;SDS011;4517;49.020;12.066;2023-12-07T00:04:20;35.43;;;30.37;;
8964;SDS011;4517;49.020;12.066;2023-12-07T00:06:46;33.53;;;29.93;;
8964;SDS011;4517;49.020;12.066;2023-12-07T00:09:12;36.37;;;31.43;;
8964;SDS011;4517;49.020;12.066;2023-12-07T00:11:38;36.17;;;31.97;;
8964;SDS011;4517;49.020;12.066;2023-12-07T00:14:04;37.50;;;30.70;;
8964;SDS011;4517;49.020;12.066;2023-12-07T00:16:30;40.13;;;31.40;;
8964;SDS011;4517;49.020;12.066;2023-12-07T00:18:56;42.27;;;31.90;;
8964;SDS011;4517;49.020;12.066;2023-12-07T00:21:22;37.80;;;32.07;;
8964;SDS011;4517;49.020;12.066;2023-12-07T00:23:48;41.20;;;32.80;;
8964;SDS011;4517;49.020;12.066;2023-12-07T00:26:14;37.20;;;31.33;;
8964;SDS011;4517;49.020;12.066;2023-12-07T00:28:40;40.63;;;31.67;;
8964;SDS011;4517;49.020;12.066;2023-12-07T00:31:06;39.43;;;31.43;;
8964;SDS011;4517;49.020;12.066;2023-12-07T00:33:33;33.63;;;29.90;;
8964;SDS011;4517;49.020;12.066;2023-12-07T00:35:59;35.63;;;30.60;;
8964;SDS011;4517;49.020;12.066;2023-12-07T00:38:25;39.83;;;32.07;;
8964;SDS011;4517;49.020;12.066;2023-12-07T00:40:51;33.90;;;30.23;;
8964;SDS011;4517;49.020;12.066;2023-12-07T00:43:17;34.90;;;31.30;;
8964;SDS011;4517;49.020;12.066;2023-12-07T00:45:43;37.20;;;30.43;;
8964;SDS011;4517;49.020;12.066;2023-12-07T00:48:09;38.30;;;32.63;;
8964;SDS011;4517;49.020;12.066;2023-12-07T00:50:35;35.53;;;31.47;;
8964;SDS011;4517;49.020;12.066;2023-12-07T00:53:01;39.27;;;33.10;;
8964;SDS011;4517;49.020;12.066;2023-12-07T00:55:27;39.73;;;31.47;;
8964;SDS011;4517;49.020;12.066;2023-12-07T00:57:54;44.87;;;31.67;;
8964;SDS011;4517;49.020;12.066;2023-12-07T01:00:20;44.27;;;33.63;;
8964;SDS011;4517;49.020;12.066;2023-12-07T01:02:45;38.00;;;32.50;;
8964;SDS011;4517;49.020;12.066;2023-12-07T01:05:11;35.10;;;31.40;;
8964;SDS011;4517;49.020;12.066;2023-12-07T01:07:37;35.00;;;30.53;;
8964;SDS011;4517;49.020;12.066;2023-12-07T01:10:03;39.50;;;32.43;;
8964;SDS011;4517;49.020;12.066;2023-12-07T01:12:29;36.70;;;30.97;;
8964;SDS011;4517;49.020;12.066;2023-12-07T01:14:55;39.03;;;31.97;;
8964;SDS011;4517;49.020;12.066;2023-12-07T01:17:21;41.13;;;32.70;;
8964;SDS011;4517;49.020;12.066;2023-12-07T01:19:47;37.70;;;31.30;;
8964;SDS011;4517;49.020;12.066;2023-12-07T01:22:13;40.97;;;33.10;;
8964;SDS011;4517;49.020;12.066;2023-12-07T01:24:39;39.60;;;32.50;;
8964;SDS011;4517;49.020;12.066;2023-12-07T01:27:05;34.13;;;30.43;;
8964;SDS011;4517;49.020;12.066;2023-12-07T01:29:31;37.50;;;31.40;;
8964;SDS011;4517;49.020;12.066;2023-12-07T01:31:57;38.90;;;31.50;;
8964;SDS011;4517;49.020;12.066;2023-12-07T01:34:23;38.60;;;32.10;;
8964;SDS011;4517;49.020;12.066;2023-12-07T01:36:49;40.87;;;32.90;;
8964;SDS011;4517;49.020;12.066;2023-12-07T01:39:15;39.77;;;31.97;;
8964;SDS011;4517;49.020;12.066;2023-12-07T01:41:41;35.50;;;31.60;;
8964;SDS011;4517;49.020;12.066;2023-12-07T01:44:08;38.17;;;32.97;;
8964;SDS011;4517;49.020;12.066;2023-12-07T01:46:34;38.00;;;32.90;;
8964;SDS011;4517;49.020;12.066;2023-12-07T01:49:00;38.90;;;31.60;;
8964;SDS011;4517;49.020;12.066;2023-12-07T01:51:26;42.47;;;34.10;;
8964;SDS011;4517;49.020;12.066;2023-12-07T01:53:52;42.90;;;33.27;;
8964;SDS011;4517;49.020;12.066;2023-12-07T01:56:19;37.63;;;32.07;;
8964;SDS011;4517;49.020;12.066;2023-12-07T01:58:46;37.30;;;33.10;;
8964;SDS011;4517;49.020;12.066;2023-12-07T02:01:12;40.87;;;32.07;;
8964;SDS011;4517;49.020;12.066;2023-12-07T02:03:41;41.43;;;31.87;;
8964;SDS011;4517;49.020;12.066;2023-12-07T02:06:07;43.23;;;32.70;;
8964;SDS011;4517;49.020;12.066;2023-12-07T02:08:36;40.50;;;33.73;;
8964;SDS011;4517;49.020;12.066;2023-12-07T02:11:06;38.80;;;33.80;;
8964;SDS011;4517;49.020;12.066;2023-12-07T02:13:33;36.73;;;30.37;;
8964;SDS011;4517;49.020;12.066;2023-12-07T02:15:59;35.97;;;31.17;;
8964;SDS011;4517;49.020;12.066;2023-12-07T02:18:29;38.23;;;31.73;;
8964;SDS011;4517;49.020;12.066;2023-12-07T02:21:06;45.63;;;33.07;;
8964;SDS011;4517;49.020;12.066;2023-12-07T02:23:35;41.37;;;33.70;;
8964;SDS011;4517;49.020;12.066;2023-12-07T02:26:08;39.10;;;32.90;;
8964;SDS011;4517;49.020;12.066;2023-12-07T02:28:36;41.17;;;31.70;;
8964;SDS011;4517;49.020;12.066;2023-12-07T02:31:02;46.07;;;31.20;;
8964;SDS011;4517;49.020;12.066;2023-12-07T02:33:28;37.73;;;31.60;;
8964;SDS011;4517;49.020;12.066;2023-12-07T02:35:54;41.77;;;33.83;;
8964;SDS011;4517;49.020;12.066;2023-12-07T02:38:20;41.33;;;32.20;;
8964;SDS011;4517;49.020;12.066;2023-12-07T02:40:48;43.43;;;31.37;;
8964;SDS011;4517;49.020;12.066;2023-12-07T02:43:14;41.03;;;32.53;;
8964;SDS011;4517;49.020;12.066;2023-12-07T02:45:41;39.07;;;33.33;;
8964;SDS011;4517;49.020;12.066;2023-12-07T02:48:07;47.23;;;33.47;;
8964;SDS011;4517;49.020;12.066;2023-12-07T02:50:33;35.50;;;31.03;;
8964;SDS011;4517;49.020;12.066;2023-12-07T02:52:59;35.13;;;30.93;;
8964;SDS011;4517;49.020;12.066;2023-12-07T02:55:25;37.77;;;31.80;;
8964;SDS011;4517;49.020;12.066;2023-12-07T02:57:51;38.87;;;31.40;;
8964;SDS011;4517;49.020;12.066;2023-12-07T03:00:17;40.00;;;31.77;;
8964;SDS011;4517;49.020;12.066;2023-12-07T03:02:43;39.77;;;31.70;;
8964;SDS011;4517;49.020;12.066;2023-12-07T03:05:09;44.00;;;32.43;;
8964;SDS011;4517;49.020;12.066;2023-12-07T03:16:45;41.57;;;34.10;;
8964;SDS011;4517;49.020;12.066;2023-12-07T03:19:11;39.23;;;32.10;;
8964;SDS011;4517;49.020;12.066;2023-12-07T03:21:41;44.00;;;32.97;;
8964;SDS011;4517;49.020;12.066;2023-12-07T03:24:08;39.27;;;32.80;;
8964;SDS011;4517;49.020;12.066;2023-12-07T03:26:34;38.70;;;32.10;;
8964;SDS011;4517;49.020;12.066;2023-12-07T03:29:00;43.00;;;31.87;;
8964;SDS011;4517;49.020;12.066;2023-12-07T03:31:27;43.20;;;30.83;;
8964;SDS011;4517;49.020;12.066;2023-12-07T03:33:53;39.17;;;31.67;;
8964;SDS011;4517;49.020;12.066;2023-12-07T03:36:19;34.57;;;29.63;;
8964;SDS011;4517;49.020;12.066;2023-12-07T03:38:45;35.30;;;29.77;;
8964;SDS011;4517;49.020;12.066;2023-12-07T03:41:11;36.60;;;31.03;;
8964;SDS011;4517;49.020;12.066;2023-12-07T03:43:37;36.60;;;30.50;;
8964;SDS011;4517;49.020;12.066;2023-12-07T03:46:03;37.60;;;30.10;;
8964;SDS011;4517;49.020;12.066;2023-12-07T03:48:30;40.03;;;29.90;;
8964;SDS011;4517;49.020;12.066;2023-12-07T03:50:56;40.60;;;31.37;;
8964;SDS011;4517;49.020;12.066;2023-12-07T03:53:21;34.53;;;29.93;;
8964;SDS011;4517;49.020;12.066;2023-12-07T03:55:47;36.93;;;30.23;;
8964;SDS011;4517;49.020;12.066;2023-12-07T03:58:13;34.17;;;29.70;;
8964;SDS011;4517;49.020;12.066;2023-12-07T04:00:39;40.93;;;29.90;;
8964;SDS011;4517;49.020;12.066;2023-12-07T04:03:06;35.53;;;30.27;;
8964;SDS011;4517;49.020;12.066;2023-12-07T04:05:32;38.80;;;30.70;;
8964;SDS011;4517;49.020;12.066;2023-12-07T04:07:58;36.43;;;30.03;;
8964;SDS011;4517;49.020;12.066;2023-12-07T04:10:24;37.90;;;30.50;;
8964;SDS011;4517;49.020;12.066;2023-12-07T04:12:50;37.23;;;29.97;;
8964;SDS011;4517;49.020;12.066;2023-12-07T04:15:18;35.30;;;30.50;;
8964;SDS011;4517;49.020;12.066;2023-12-07T04:17:44;38.50;;;31.53;;
8964;SDS011;4517;49.020;12.066;2023-12-07T04:20:10;36.63;;;29.97;;
8964;SDS011;4517;49.020;12.066;2023-12-07T04:22:36;36.33;;;29.93;;
8964;SDS011;4517;49.020;12.066;2023-12-07T04:25:02;34.23;;;29.63;;
8964;SDS011;4517;49.020;12.066;2023-12-07T04:27:28;34.60;;;29.03;;
8964;SDS011;4517;49.020;12.066;2023-12-07T04:29:54;33.83;;;29.77;;
8964;SDS011;4517;49.020;12.066;2023-12-07T04:32:20;40.20;;;29.27;;
8964;SDS011;4517;49.020;12.066;2023-12-07T04:34:46;36.03;;;29.83;;
8964;SDS011;4517;49.020;12.066;2023-12-07T04:37:11;33.37;;;27.60;;
8964;SDS011;4517;49.020;12.066;2023-12-07T04:39:37;36.67;;;29.23;;
8964;SDS011;4517;49.020;12.066;2023-12-07T04:42:03;32.17;;;27.57;;
8964;SDS011;4517;49.020;12.066;2023-12-07T04:44:29;34.33;;;28.87;;
8964;SDS011;4517;49.020;12.066;2023-12-07T04:46:55;37.23;;;28.93;;
8964;SDS011;4517;49.020;12.066;2023-12-07T04:49:21;37.90;;;28.73;;
8964;SDS011;4517;49.020;12.066;2023-12-07T04:51:47;33.33;;;27.27;;
8964;SDS011;4517;49.020;12.066;2023-12-07T04:54:13;32.57;;;28.57;;
8964;SDS011;4517;49.020;12.066;2023-12-07T04:56:42;37.97;;;28.00;;
8964;SDS011;4517;49.020;12.066;2023-12-07T04:59:09;35.80;;;28.03;;
8964;SDS011;4517;49.020;12.066;2023-12-07T05:01:35;37.20;;;29.17;;
8964;SDS011;4517;49.020;12.066;2023-12-07T05:04:01;35.37;;;28.43;;
8964;SDS011;4517;49.020;12.066;2023-12-07T05:06:28;31.43;;;27.97;;
8964;SDS011;4517;49.020;12.066;2023-12-07T05:08:54;39.07;;;30.30;;
8964;SDS011;4517;49.020;12.066;2023-12-07T05:11:20;33.57;;;29.90;;
8964;SDS011;4517;49.020;12.066;2023-12-07T05:13:46;37.90;;;29.23;;
8964;SDS011;4517;49.020;12.066;2023-12-07T05:16:13;40.13;;;31.20;;
8964;SDS011;4517;49.020;12.066;2023-12-07T05:18:39;34.13;;;28.70;;
8964;SDS011;4517;49.020;12.066;2023-12-07T05:21:05;36.77;;;28.93;;
8964;SDS011;4517;49.020;12.066;2023-12-07T05:23:31;37.50;;;30.37;;
8964;SDS011;4517;49.020;12.066;2023-12-07T05:25:57;39.50;;;30.50;;
8964;SDS011;4517;49.020;12.066;2023-12-07T05:28:24;35.07;;;28.87;;
8964;SDS011;4517;49.020;12.066;2023-12-07T05:30:50;35.10;;;30.03;;
8964;SDS011;4517;49.020;12.066;2023-12-07T05:33:17;35.73;;;29.13;;
8964;SDS011;4517;49.020;12.066;2023-12-07T05:35:44;37.30;;;30.03;;
8964;SDS011;4517;49.020;12.066;2023-12-07T05:38:10;42.57;;;30.87;;
8964;SDS011;4517;49.020;12.066;2023-12-07T05:40:36;36.73;;;30.20;;
8964;SDS011;4517;49.020;12.066;2023-12-07T05:43:02;38.70;;;29.23;;
8964;SDS011;4517;49.020;12.066;2023-12-07T05:45:28;36.10;;;28.70;;
8964;SDS011;4517;49.020;12.066;2023-12-07T05:47:55;38.33;;;29.60;;
8964;SDS011;4517;49.020;12.066;2023-12-07T05:50:21;34.97;;;29.87;;
8964;SDS011;4517;49.020;12.066;2023-12-07T05:52:47;35.67;;;31.00;;
8964;SDS011;4517;49.020;12.066;2023-12-07T05:55:13;39.40;;;29.70;;
8964;SDS011;4517;49.020;12.066;2023-12-07T05:57:39;39.53;;;31.13;;
8964;SDS011;4517;49.020;12.066;2023-12-07T06:00:05;37.20;;;31.03;;
8964;SDS011;4517;49.020;12.066;2023-12-07T06:02:35;40.93;;;35.60;;
8964;SDS011;4517;49.020;12.066;2023-12-07T06:05:02;36.87;;;31.47;;
8964;SDS011;4517;49.020;12.066;2023-12-07T06:07:30;42.80;;;35.87;;
8964;SDS011;4517;49.020;12.066;2023-12-07T06:09:56;32.83;;;28.97;;
8964;SDS011;4517;49.020;12.066;2023-12-07T06:12:22;39.13;;;30.73;;
8964;SDS011;4517;49.020;12.066;2023-12-07T06:14:48;37.60;;;32.10;;
8964;SDS011;4517;49.020;12.066;2023-12-07T06:17:15;36.80;;;30.57;;
8964;SDS011;4517;49.020;12.066;2023-12-07T06:19:41;41.10;;;31.23;;
8964;SDS011;4517;49.020;12.066;2023-12-07T06:22:08;47.10;;;32.67;;
8964;SDS011;4517;49.020;12.066;2023-12-07T06:24:34;41.93;;;31.07;;
8964;SDS011;4517;49.020;12.066;2023-12-07T06:27:00;39.17;;;30.80;;
8964;SDS011;4517;49.020;12.066;2023-12-07T06:29:27;42.17;;;32.07;;
8964;SDS011;4517;49.020;12.066;2023-12-07T06:31:54;47.83;;;33.57;;
8964;SDS011;4517;49.020;12.066;2023-12-07T06:34:20;39.63;;;32.27;;
8964;SDS011;4517;49.020;12.066;2023-12-07T06:36:46;42.27;;;32.33;;
8964;SDS011;4517;49.020;12.066;2023-12-07T06:39:12;36.53;;;30.37;;
8964;SDS011;4517;49.020;12.066;2023-12-07T06:41:39;44.87;;;31.70;;
8964;SDS011;4517;49.020;12.066;2023-12-07T06:44:06;39.77;;;32.23;;
8964;SDS011;4517;49.020;12.066;2023-12-07T06:46:32;36.47;;;32.53;;
8964;SDS011;4517;49.020;12.066;2023-12-07T06:48:58;42.33;;;32.00;;
8964;SDS011;4517;49.020;12.066;2023-12-07T06:51:23;39.83;;;33.30;;
8964;SDS011;4517;49.020;12.066;2023-12-07T06:53:49;42.97;;;32.70;;
8964;SDS011;4517;49.020;12.066;2023-12-07T06:56:16;46.27;;;33.40;;
8964;SDS011;4517;49.020;12.066;2023-12-07T06:58:42;46.17;;;33.90;;
8964;SDS011;4517;49.020;12.066;2023-12-07T07:01:08;41.13;;;33.70;;
8964;SDS011;4517;49.020;12.066;2023-12-07T07:03:34;42.30;;;33.47;;
8964;SDS011;4517;49.020;12.066;2023-12-07T07:06:00;47.13;;;33.50;;
8964;SDS011;4517;49.020;12.066;2023-12-07T07:08:26;41.60;;;32.00;;
8964;SDS011;4517;49.020;12.066;2023-12-07T07:10:52;50.50;;;36.20;;
8964;SDS011;4517;49.020;12.066;2023-12-07T07:13:18;47.57;;;36.27;;
8964;SDS011;4517;49.020;12.066;2023-12-07T07:15:45;47.17;;;35.47;;
8964;SDS011;4517;49.020;12.066;2023-12-07T07:18:12;46.43;;;32.70;;
8964;SDS011;4517;49.020;12.066;2023-12-07T07:20:38;47.00;;;35.53;;
8964;SDS011;4517;49.020;12.066;2023-12-07T07:23:05;45.43;;;34.30;;
8964;SDS011;4517;49.020;12.066;2023-12-07T07:25:32;46.67;;;34.23;;
8964;SDS011;4517;49.020;12.066;2023-12-07T07:27:59;48.33;;;33.07;;
8964;SDS011;4517;49.020;12.066;2023-12-07T07:30:25;40.77;;;33.80;;
8964;SDS011;4517;49.020;12.066;2023-12-07T07:32:51;46.33;;;34.03;;
8964;SDS011;4517;49.020;12.066;2023-12-07T07:35:17;47.43;;;33.43;;
8964;SDS011;4517;49.020;12.066;2023-12-07T07:37:43;49.10;;;36.87;;
8964;SDS011;4517;49.020;12.066;2023-12-07T07:40:09;48.13;;;36.70;;
8964;SDS011;4517;49.020;12.066;2023-12-07T07:42:37;45.83;;;35.17;;
8964;SDS011;4517;49.020;12.066;2023-12-07T07:45:04;52.17;;;36.07;;
8964;SDS011;4517;49.020;12.066;2023-12-07T07:47:31;50.97;;;36.77;;
8964;SDS011;4517;49.020;12.066;2023-12-07T07:49:57;53.67;;;36.50;;
8964;SDS011;4517;49.020;12.066;2023-12-07T07:52:23;44.73;;;36.00;;
8964;SDS011;4517;49.020;12.066;2023-12-07T07:54:49;50.37;;;35.87;;
8964;SDS011;4517;49.020;12.066;2023-12-07T07:57:15;41.63;;;32.63;;
8964;SDS011;4517;49.020;12.066;2023-12-07T07:59:41;49.63;;;35.17;;
8964;SDS011;4517;49.020;12.066;2023-12-07T08:02:07;48.63;;;36.13;;
8964;SDS011;4517;49.020;12.066;2023-12-07T08:04:33;57.23;;;37.70;;
8964;SDS011;4517;49.020;12.066;2023-12-07T08:06:59;53.57;;;34.37;;
8964;SDS011;4517;49.020;12.066;2023-12-07T08:09:25;47.70;;;35.53;;
8964;SDS011;4517;49.020;12.066;2023-12-07T08:11:51;45.40;;;33.50;;
8964;SDS011;4517;49.020;12.066;2023-12-07T08:14:17;50.40;;;33.80;;
8964;SDS011;4517;49.020;12.066;2023-12-07T08:16:46;49.90;;;35.13;;
8964;SDS011;4517;49.020;12.066;2023-12-07T08:19:12;45.73;;;33.30;;
8964;SDS011;4517;49.020;12.066;2023-12-07T08:21:38;53.40;;;36.60;;
8964;SDS011;4517;49.020;12.066;2023-12-07T08:24:04;45.37;;;33.87;;
8964;SDS011;4517;49.020;12.066;2023-12-07T08:26:31;52.37;;;33.80;;
8964;SDS011;4517;49.020;12.066;2023-12-07T08:28:57;44.27;;;32.23;;
8964;SDS011;4517;49.020;12.066;2023-12-07T08:31:23;47.63;;;34.70;;
8964;SDS011;4517;49.020;12.066;2023-12-07T08:33:49;47.53;;;34.90;;
8964;SDS011;4517;49.020;12.066;2023-12-07T08:36:15;46.80;;;33.73;;
8964;SDS011;4517;49.020;12.066;2023-12-07T08:38:41;45.83;;;34.23;;
8964;SDS011;4517;49.020;12.066;2023-12-07T08:41:07;42.80;;;34.53;;
8964;SDS011;4517;49.020;12.066;2023-12-07T08:43:33;47.60;;;33.70;;
8964;SDS011;4517;49.020;12.066;2023-12-07T08:45:59;45.97;;;34.43;;
8964;SDS011;4517;49.020;12.066;2023-12-07T08:48:25;40.90;;;32.70;;
8964;SDS011;4517;49.020;12.066;2023-12-07T08:50:51;42.87;;;32.87;;
8964;SDS011;4517;49.020;12.066;2023-12-07T08:53:17;49.10;;;35.40;;
8964;SDS011;4517;49.020;12.066;2023-12-07T08:55:43;48.60;;;35.90;;
8964;SDS011;4517;49.020;12.066;2023-12-07T08:58:09;45.20;;;34.73;;
8964;SDS011;4517;49.020;12.066;2023-12-07T09:00:35;52.83;;;40.27;;
8964;SDS011;4517;49.020;12.066;2023-12-07T09:03:01;46.30;;;33.70;;
8964;SDS011;4517;49.020;12.066;2023-12-07T09:05:27;55.43;;;36.07;;
8964;SDS011;4517;49.020;12.066;2023-12-07T09:07:54;43.77;;;33.83;;
8964;SDS011;4517;49.020;12.066;2023-12-07T09:10:21;49.07;;;36.83;;
8964;SDS011;4517;49.020;12.066;2023-12-07T09:12:47;44.90;;;34.23;;
8964;SDS011;4517;49.020;12.066;2023-12-07T09:15:13;45.70;;;35.17;;
8964;SDS011;4517;49.020;12.066;2023-12-07T09:17:39;50.10;;;35.13;;
8964;SDS011;4517;49.020;12.066;2023-12-07T09:20:08;45.20;;;35.00;;
8964;SDS011;4517;49.020;12.066;2023-12-07T09:22:40;50.37;;;36.17;;
8964;SDS011;4517;49.020;12.066;2023-12-07T09:25:06;45.50;;;33.10;;
8964;SDS011;4517;49.020;12.066;2023-12-07T09:27:33;48.27;;;34.70;;
8964;SDS011;4517;49.020;12.066;2023-12-07T09:29:59;45.73;;;36.03;;
8964;SDS011;4517;49.020;12.066;2023-12-07T09:32:26;51.47;;;36.20;;
8964;SDS011;4517;49.020;12.066;2023-12-07T09:34:53;45.37;;;37.57;;
8964;SDS011;4517;49.020;12.066;2023-12-07T09:37:19;47.47;;;36.50;;
8964;SDS011;4517;49.020;12.066;2023-12-07T09:39:45;51.03;;;37.50;;
8964;SDS011;4517;49.020;12.066;2023-12-07T09:42:11;50.30;;;36.93;;
8964;SDS011;4517;49.020;12.066;2023-12-07T09:44:37;52.97;;;36.50;;
8964;SDS011;4517;49.020;12.066;2023-12-07T09:47:03;52.33;;;37.73;;
8964;SDS011;4517;49.020;12.066;2023-12-07T09:49:29;50.57;;;37.00;;
8964;SDS011;4517;49.020;12.066;2023-12-07T09:51:55;49.87;;;38.43;;
8964;SDS011;4517;49.020;12.066;2023-12-07T09:54:22;53.40;;;37.50;;
8964;SDS011;4517;49.020;12.066;2023-12-07T09:56:50;49.30;;;37.20;;
8964;SDS011;4517;49.020;12.066;2023-12-07T09:59:18;56.30;;;37.90;;
8964;SDS011;4517;49.020;12.066;2023-12-07T10:01:44;54.53;;;38.47;;
8964;SDS011;4517;49.020;12.066;2023-12-07T10:04:16;61.30;;;38.90;;
8964;SDS011;4517;49.020;12.066;2023-12-07T10:06:43;55.90;;;37.57;;
8964;SDS011;4517;49.020;12.066;2023-12-07T10:09:10;51.63;;;37.13;;
8964;SDS011;4517;49.020;12.066;2023-12-07T10:11:36;53.67;;;37.13;;
8964;SDS011;4517;49.020;12.066;2023-12-07T10:14:02;50.13;;;38.73;;
8964;SDS011;4517;49.020;12.066;2023-12-07T10:16:28;51.90;;;37.70;;
8964;SDS011;4517;49.020;12.066;2023-12-07T10:18:54;44.33;;;36.37;;
8964;SDS011;4517;49.020;12.066;2023-12-07T10:21:32;51.10;;;37.50;;
8964;SDS011;4517;49.020;12.066;2023-12-07T10:23:59;49.20;;;35.77;;
8964;SDS011;4517;49.020;12.066;2023-12-07T10:26:24;53.73;;;36.97;;
8964;SDS011;4517;49.020;12.066;2023-12-07T10:28:50;44.87;;;34.33;;
8964;SDS011;4517;49.020;12.066;2023-12-07T10:31:19;52.10;;;35.70;;
8964;SDS011;4517;49.020;12.066;2023-12-07T10:33:51;46.47;;;35.90;;
8964;SDS011;4517;49.020;12.066;2023-12-07T10:36:17;45.33;;;33.90;;
8964;SDS011;4517;49.020;12.066;2023-12-07T10:38:43;45.27;;;36.40;;
8964;SDS011;4517;49.020;12.066;2023-12-07T10:41:12;48.33;;;36.37;;
8964;SDS011;4517;49.020;12.066;2023-12-07T10:43:43;43.77;;;34.33;;
8964;SDS011;4517;49.020;12.066;2023-12-07T10:46:15;43.77;;;38.07;;
8964;SDS011;4517;49.020;12.066;2023-12-07T10:48:41;41.90;;;33.93;;
8964;SDS011;4517;49.020;12.066;2023-12-07T10:51:08;42.27;;;32.50;;
8964;SDS011;4517;49.020;12.066;2023-12-07T10:53:40;42.80;;;32.10;;
8964;SDS011;4517;49.020;12.066;2023-12-07T10:56:10;38.47;;;30.73;;
8964;SDS011;4517;49.020;12.066;2023-12-07T10:58:36;37.80;;;30.17;;
8964;SDS011;4517;49.020;12.066;2023-12-07T11:01:03;45.53;;;32.90;;
8964;SDS011;4517;49.020;12.066;2023-12-07T11:03:30;38.67;;;31.23;;
8964;SDS011;4517;49.020;12.066;2023-12-07T11:05:56;37.43;;;32.00;;
8964;SDS011;4517;49.020;12.066;2023-12-07T11:08:36;42.93;;;33.13;;
8964;SDS011;4517;49.020;12.066;2023-12-07T11:11:08;40.73;;;31.43;;
8964;SDS011;4517;49.020;12.066;2023-12-07T11:13:36;39.20;;;31.47;;
8964;SDS011;4517;49.020;12.066;2023-12-07T11:16:03;40.77;;;31.03;;
8964;SDS011;4517;49.020;12.066;2023-12-07T11:18:29;46.20;;;31.93;;
8964;SDS011;4517;49.020;12.066;2023-12-07T11:20:55;40.63;;;30.97;;
8964;SDS011;4517;49.020;12.066;2023-12-07T11:23:21;40.20;;;30.80;;
8964;SDS011;4517;49.020;12.066;2023-12-07T11:25:48;37.80;;;30.40;;
8964;SDS011;4517;49.020;12.066;2023-12-07T11:28:15;46.80;;;33.30;;
8964;SDS011;4517;49.020;12.066;2023-12-07T11:30:42;36.60;;;29.23;;
8964;SDS011;4517;49.020;12.066;2023-12-07T11:33:08;35.27;;;29.57;;
8964;SDS011;4517;49.020;12.066;2023-12-07T11:38:20;47.47;;;32.80;;
8964;SDS011;4517;49.020;12.066;2023-12-07T11:40:46;40.50;;;31.57;;
8964;SDS011;4517;49.020;12.066;2023-12-07T11:43:45;46.23;;;32.87;;
8964;SDS011;4517;49.020;12.066;2023-12-07T11:46:05;39.27;;;30.27;;
8964;SDS011;4517;49.020;12.066;2023-12-07T11:48:32;47.00;;;34.40;;
8964;SDS011;4517;49.020;12.066;2023-12-07T11:51:01;49.10;;;35.10;;
8964;SDS011;4517;49.020;12.066;2023-12-07T11:53:28;50.17;;;34.87;;
8964;SDS011;4517;49.020;12.066;2023-12-07T11:55:57;53.40;;;35.20;;
8964;SDS011;4517;49.020;12.066;2023-12-07T11:58:24;50.93;;;35.87;;
8964;SDS011;4517;49.020;12.066;2023-12-07T12:00:51;53.57;;;34.97;;
8964;SDS011;4517;49.020;12.066;2023-12-07T12:03:18;53.50;;;35.40;;
8964;SDS011;4517;49.020;12.066;2023-12-07T12:05:45;47.03;;;35.03;;
8964;SDS011;4517;49.020;12.066;2023-12-07T12:08:11;46.20;;;35.63;;
8964;SDS011;4517;49.020;12.066;2023-12-07T12:10:40;56.50;;;35.17;;
8964;SDS011;4517;49.020;12.066;2023-12-07T12:13:09;58.10;;;36.77;;
8964;SDS011;4517;49.020;12.066;2023-12-07T12:15:36;49.37;;;37.03;;
8964;SDS011;4517;49.020;12.066;2023-12-07T12:18:02;46.57;;;35.70;;
8964;SDS011;4517;49.020;12.066;2023-12-07T12:20:29;50.87;;;33.80;;
8964;SDS011;4517;49.020;12.066;2023-12-07T12:22:56;52.93;;;35.30;;
8964;SDS011;4517;49.020;12.066;2023-12-07T12:25:23;53.63;;;37.00;;
8964;SDS011;4517;49.020;12.066;2023-12-07T12:27:56;56.23;;;37.07;;
8964;SDS011;4517;49.020;12.066;2023-12-07T12:30:22;55.53;;;36.57;;
8964;SDS011;4517;49.020;12.066;2023-12-07T12:32:48;51.70;;;34.03;;
8964;SDS011;4517;49.020;12.066;2023-12-07T12:35:15;52.83;;;36.87;;
8964;SDS011;4517;49.020;12.066;2023-12-07T12:37:41;53.87;;;36.87;;
8964;SDS011;4517;49.020;12.066;2023-12-07T12:40:08;60.63;;;39.07;;
8964;SDS011;4517;49.020;12.066;2023-12-07T12:42:34;52.00;;;36.97;;
8964;SDS011;4517;49.020;12.066;2023-12-07T12:45:03;60.20;;;38.40;;
8964;SDS011;4517;49.020;12.066;2023-12-07T12:47:30;58.50;;;38.07;;
8964;SDS011;4517;49.020;12.066;2023-12-07T12:49:56;58.23;;;44.20;;
8964;SDS011;4517;49.020;12.066;2023-12-07T12:52:23;57.93;;;39.27;;
8964;SDS011;4517;49.020;12.066;2023-12-07T12:54:50;58.23;;;38.97;;
8964;SDS011;4517;49.020;12.066;2023-12-07T12:57:17;57.80;;;36.77;;
8964;SDS011;4517;49.020;12.066;2023-12-07T12:59:44;52.00;;;35.77;;
8964;SDS011;4517;49.020;12.066;2023-12-07T13:02:10;60.73;;;39.23;;
8964;SDS011;4517;49.020;12.066;2023-12-07T13:04:37;60.27;;;39.67;;
8964;SDS011;4517;49.020;12.066;2023-12-07T13:07:03;47.93;;;35.60;;
8964;SDS011;4517;49.020;12.066;2023-12-07T13:09:29;53.80;;;38.43;;
8964;SDS011;4517;49.020;12.066;2023-12-07T13:11:55;53.10;;;36.07;;
8964;SDS011;4517;49.020;12.066;2023-12-07T13:14:20;56.23;;;37.40;;
8964;SDS011;4517;49.020;12.066;2023-12-07T13:16:46;53.93;;;38.00;;
8964;SDS011;4517;49.020;12.066;2023-12-07T13:19:12;60.30;;;37.20;;
8964;SDS011;4517;49.020;12.066;2023-12-07T13:21:38;57.50;;;38.47;;
8964;SDS011;4517;49.020;12.066;2023-12-07T13:24:04;57.83;;;38.70;;
8964;SDS011;4517;49.020;12.066;2023-12-07T13:26:32;52.07;;;37.70;;
8964;SDS011;4517;49.020;12.066;2023-12-07T13:28:58;49.47;;;36.67;;
8964;SDS011;4517;49.020;12.066;2023-12-07T13:31:24;56.53;;;38.10;;
8964;SDS011;4517;49.020;12.066;2023-12-07T13:33:50;60.60;;;38.57;;
8964;SDS011;4517;49.020;12.066;2023-12-07T13:36:16;54.53;;;36.97;;
8964;SDS011;4517;49.020;12.066;2023-12-07T13:38:43;55.67;;;35.50;;
8964;SDS011;4517;49.020;12.066;2023-12-07T13:41:09;51.90;;;36.57;;
8964;SDS011;4517;49.020;12.066;2023-12-07T13:43:35;51.23;;;37.97;;
8964;SDS011;4517;49.020;12.066;2023-12-07T13:46:01;51.73;;;36.47;;
8964;SDS011;4517;49.020;12.066;2023-12-07T13:48:27;55.57;;;38.00;;
8964;SDS011;4517;49.020;12.066;2023-12-07T13:50:53;48.97;;;35.30;;
8964;SDS011;4517;49.020;12.066;2023-12-07T13:53:19;52.30;;;37.33;;
8964;SDS011;4517;49.020;12.066;2023-12-07T13:55:46;53.30;;;37.87;;
8964;SDS011;4517;49.020;12.066;2023-12-07T13:58:12;52.80;;;43.10;;
8964;SDS011;4517;49.020;12.066;2023-12-07T14:00:38;54.40;;;38.07;;
8964;SDS011;4517;49.020;12.066;2023-12-07T14:03:04;47.87;;;34.60;;
8964;SDS011;4517;49.020;12.066;2023-12-07T14:05:31;47.93;;;36.30;;
8964;SDS011;4517;49.020;12.066;2023-12-07T14:07:56;44.53;;;36.30;;
8964;SDS011;4517;49.020;12.066;2023-12-07T14:10:22;49.80;;;34.70;;
8964;SDS011;4517;49.020;12.066;2023-12-07T14:12:48;53.93;;;37.83;;
8964;SDS011;4517;49.020;12.066;2023-12-07T14:15:14;49.87;;;36.47;;
8964;SDS011;4517;49.020;12.066;2023-12-07T14:17:40;54.93;;;37.40;;
8964;SDS011;4517;49.020;12.066;2023-12-07T14:20:07;52.83;;;37.67;;
8964;SDS011;4517;49.020;12.066;2023-12-07T14:22:34;49.87;;;36.70;;
8964;SDS011;4517;49.020;12.066;2023-12-07T14:25:00;52.87;;;39.33;;
8964;SDS011;4517;49.020;12.066;2023-12-07T14:27:26;52.97;;;37.23;;
8964;SDS011;4517;49.020;12.066;2023-12-07T14:29:52;60.87;;;41.70;;
8964;SDS011;4517;49.020;12.066;2023-12-07T14:32:18;49.57;;;36.80;;
8964;SDS011;4517;49.020;12.066;2023-12-07T14:34:44;52.37;;;39.87;;
8964;SDS011;4517;49.020;12.066;2023-12-07T14:37:10;52.17;;;37.73;;
8964;SDS011;4517;49.020;12.066;2023-12-07T14:39:37;50.07;;;38.33;;
8964;SDS011;4517;49.020;12.066;2023-12-07T14:42:03;56.33;;;38.80;;